createdAt,value
2019-02-06T00:02:25.041Z,5.90
2019-02-06T00:05:14.524Z,6.07
2019-02-06T00:07:40.437Z,7.90
2019-02-06T00:10:08.285Z,5.53
2019-02-06T00:12:36.018Z,7.57
2019-02-06T00:15:05.046Z,7.07
2019-02-06T00:17:33.118Z,6.17
2019-02-06T00:20:00.753Z,9.43
2019-02-06T00:22:28.083Z,6.17
2019-02-06T00:24:55.801Z,5.07
2019-02-06T00:27:23.594Z,9.00
2019-02-06T00:29:51.662Z,5.13
2019-02-06T00:32:19.202Z,4.80
2019-02-06T00:34:46.584Z,5.53
2019-02-06T00:37:14.060Z,6.27
2019-02-06T00:39:41.767Z,9.40
2019-02-06T00:42:09.490Z,5.00
2019-02-06T00:44:37.817Z,4.60
2019-02-06T00:47:05.238Z,5.10
2019-02-06T00:49:32.738Z,7.80
2019-02-06T00:52:00.415Z,7.23
2019-02-06T00:54:27.970Z,8.03
2019-02-06T00:56:56.004Z,5.97
2019-02-06T00:59:24.133Z,5.07
2019-02-06T01:02:10.612Z,8.23
2019-02-06T01:04:57.488Z,8.63
2019-02-06T01:07:24.963Z,9.20
2019-02-06T01:09:54.246Z,6.80
2019-02-06T01:12:21.842Z,6.07
2019-02-06T01:14:49.013Z,6.87
2019-02-06T01:17:17.034Z,9.17
2019-02-06T01:19:48.041Z,7.30
2019-02-06T01:22:15.484Z,6.90
2019-02-06T01:24:42.961Z,6.30
2019-02-06T01:27:11.001Z,7.03
2019-02-06T01:29:38.611Z,8.23
2019-02-06T01:32:06.142Z,8.13
2019-02-06T01:34:33.689Z,8.90
2019-02-06T01:37:01.735Z,5.97
2019-02-06T01:39:29.295Z,7.77
2019-02-06T01:41:56.881Z,8.30
2019-02-06T01:44:24.335Z,8.73
2019-02-06T01:46:52.358Z,10.50
2019-02-06T01:49:20.014Z,8.53
2019-02-06T01:51:47.497Z,8.63
2019-02-06T01:54:15.458Z,9.27
2019-02-06T01:56:43.110Z,8.10
2019-02-06T01:59:10.683Z,7.70
2019-02-06T02:01:38.787Z,6.43
2019-02-06T02:04:06.667Z,12.30
2019-02-06T02:06:35.046Z,11.33
2019-02-06T02:09:09.915Z,8.90
2019-02-06T02:11:37.569Z,8.33
2019-02-06T02:14:05.567Z,8.87
2019-02-06T02:16:33.658Z,7.10
2019-02-06T02:19:02.165Z,9.40
2019-02-06T02:21:30.831Z,9.80
2019-02-06T02:23:58.415Z,6.70
2019-02-06T02:26:26.133Z,10.50
2019-02-06T02:28:53.857Z,7.90
2019-02-06T02:31:21.746Z,8.03
2019-02-06T02:33:49.360Z,8.40
2019-02-06T02:36:17.264Z,9.00
2019-02-06T02:38:44.699Z,7.90
2019-02-06T02:41:12.600Z,8.50
2019-02-06T02:43:40.647Z,7.50
2019-02-06T02:46:08.199Z,8.13
2019-02-06T02:48:35.662Z,9.30
2019-02-06T02:51:03.545Z,8.00
2019-02-06T02:53:31.795Z,14.63
2019-02-06T02:55:59.651Z,7.10
2019-02-06T02:58:27.469Z,12.00
2019-02-06T03:01:14.941Z,8.27
2019-02-06T03:03:57.547Z,8.50
2019-02-06T03:06:28.240Z,8.47
2019-02-06T03:08:55.108Z,7.97
2019-02-06T03:11:22.489Z,9.37
2019-02-06T03:13:49.987Z,9.60
2019-02-06T03:16:17.552Z,11.43
2019-02-06T03:18:45.638Z,8.70
2019-02-06T03:21:13.460Z,10.37
2019-02-06T03:23:41.134Z,9.63
2019-02-06T03:26:09.309Z,9.33
2019-02-06T03:28:36.760Z,8.17
2019-02-06T03:31:04.531Z,8.67
2019-02-06T03:33:32.053Z,9.50
2019-02-06T03:36:00.228Z,10.50
2019-02-06T03:38:27.898Z,8.43
2019-02-06T03:40:55.616Z,8.07
2019-02-06T03:43:23.566Z,7.67
2019-02-06T03:45:51.257Z,7.53
2019-02-06T03:48:18.875Z,8.80
2019-02-06T03:50:46.449Z,7.00
2019-02-06T03:53:14.246Z,9.27
2019-02-06T03:55:42.173Z,8.23
2019-02-06T03:58:09.928Z,10.60
2019-02-06T04:00:37.738Z,7.60
2019-02-06T04:03:05.153Z,8.40
2019-02-06T04:05:32.604Z,7.63
2019-02-06T04:08:00.764Z,8.43
2019-02-06T04:10:28.461Z,7.27
2019-02-06T04:12:56.480Z,9.53
2019-02-06T04:15:23.977Z,8.63
2019-02-06T04:17:54.422Z,6.17
2019-02-06T04:20:22.554Z,8.97
2019-02-06T04:22:51.436Z,10.40
2019-02-06T04:25:19.022Z,8.73
2019-02-06T04:27:47.182Z,8.73
2019-02-06T04:30:15.169Z,8.57
2019-02-06T04:32:42.757Z,11.40
2019-02-06T04:35:12.677Z,9.70
2019-02-06T04:37:40.508Z,8.77
2019-02-06T04:40:11.190Z,12.10
2019-02-06T04:42:38.930Z,7.20
2019-02-06T04:45:07.831Z,8.40
2019-02-06T04:47:35.728Z,11.03
2019-02-06T04:50:04.813Z,11.07
2019-02-06T04:52:32.542Z,10.60
2019-02-06T04:55:01.005Z,9.70
2019-02-06T04:57:28.686Z,10.47
2019-02-06T04:59:56.340Z,9.40
2019-02-06T05:02:24.006Z,8.30
2019-02-06T05:04:51.714Z,10.87
2019-02-06T05:07:19.834Z,8.37
2019-02-06T05:09:48.136Z,9.87
2019-02-06T05:12:16.949Z,10.83
2019-02-06T05:14:45.986Z,8.13
2019-02-06T05:17:14.763Z,9.30
2019-02-06T05:19:42.974Z,10.00
2019-02-06T05:22:10.544Z,12.40
2019-02-06T05:24:38.454Z,7.80
2019-02-06T05:27:08.880Z,9.40
2019-02-06T05:29:38.651Z,9.43
2019-02-06T05:32:07.184Z,8.37
2019-02-06T05:34:35.537Z,9.07
2019-02-06T05:37:03.242Z,16.80
2019-02-06T05:39:30.783Z,10.00
2019-02-06T05:42:20.176Z,9.23
2019-02-06T05:44:47.688Z,9.63
2019-02-06T05:47:15.493Z,10.60
2019-02-06T05:49:43.055Z,10.20
2019-02-06T05:52:10.835Z,12.43
2019-02-06T05:54:38.520Z,10.10
2019-02-06T05:57:06.229Z,9.93
2019-02-06T05:59:33.795Z,9.93
2019-02-06T06:02:01.932Z,10.37
2019-02-06T06:04:29.832Z,13.30
2019-02-06T06:06:57.907Z,9.47
2019-02-06T06:09:25.380Z,9.50
2019-02-06T06:11:53.684Z,10.70
2019-02-06T06:14:21.396Z,12.77
2019-02-06T06:16:49.144Z,9.77
2019-02-06T06:19:16.581Z,11.43
2019-02-06T06:21:44.696Z,9.97
2019-02-06T06:24:12.268Z,12.80
2019-02-06T06:26:40.300Z,9.83
2019-02-06T06:29:08.092Z,12.27
2019-02-06T06:31:35.863Z,10.00
2019-02-06T06:34:04.027Z,10.60
2019-02-06T06:36:31.902Z,9.83
2019-02-06T06:38:59.633Z,10.67
2019-02-06T06:41:27.803Z,9.40
2019-02-06T06:43:56.675Z,11.30
2019-02-06T06:46:24.838Z,12.67
2019-02-06T06:48:53.211Z,9.50
2019-02-06T06:51:21.550Z,11.47
2019-02-06T06:53:49.914Z,56.87
2019-02-06T06:56:17.803Z,33.83
2019-02-06T06:58:45.970Z,22.97
2019-02-06T07:01:13.654Z,16.10
2019-02-06T07:03:41.706Z,12.70
2019-02-06T07:06:09.673Z,14.47
2019-02-06T07:08:39.914Z,13.30
2019-02-06T07:11:08.185Z,11.07
2019-02-06T07:13:37.177Z,62.50
2019-02-06T07:16:05.340Z,65.60
2019-02-06T07:18:34.113Z,32.53
2019-02-06T07:21:02.295Z,22.87
2019-02-06T07:23:30.240Z,14.67
2019-02-06T07:25:58.851Z,14.40
2019-02-06T07:28:26.754Z,12.83
2019-02-06T07:30:54.335Z,11.70
2019-02-06T07:33:22.408Z,11.37
2019-02-06T07:35:50.015Z,12.83
2019-02-06T07:38:24.455Z,10.17
2019-02-06T07:40:47.901Z,11.00
2019-02-06T07:43:15.581Z,15.33
2019-02-06T07:45:43.269Z,14.20
2019-02-06T07:48:11.580Z,11.90
2019-02-06T07:50:40.077Z,11.87
2019-02-06T07:53:07.822Z,10.97
2019-02-06T07:55:35.581Z,12.07
2019-02-06T07:58:03.984Z,11.67
2019-02-06T08:00:32.457Z,10.20
2019-02-06T08:03:00.340Z,105.80
2019-02-06T08:05:28.451Z,54.80
2019-02-06T08:07:56.623Z,39.23
2019-02-06T08:10:29.451Z,20.23
2019-02-06T08:12:57.609Z,12.53
2019-02-06T08:15:25.913Z,11.80
2019-02-06T08:17:53.570Z,13.03
2019-02-06T08:20:21.582Z,11.50
2019-02-06T08:22:49.829Z,13.17
2019-02-06T08:25:17.810Z,12.13
2019-02-06T08:27:46.384Z,13.07
2019-02-06T08:30:22.909Z,11.90
2019-02-06T08:32:50.878Z,58.33
2019-02-06T08:35:18.791Z,73.30
2019-02-06T08:37:47.544Z,44.97
2019-02-06T08:40:16.233Z,27.63
2019-02-06T08:42:46.800Z,19.23
2019-02-06T08:45:15.176Z,16.20
2019-02-06T08:47:43.774Z,13.70
2019-02-06T08:50:12.409Z,13.57
2019-02-06T08:52:40.704Z,13.63
2019-02-06T08:55:12.327Z,18.93
2019-02-06T08:57:40.405Z,12.10
2019-02-06T09:00:12.902Z,11.87
2019-02-06T09:02:40.275Z,14.50
2019-02-06T09:05:07.896Z,10.90
2019-02-06T09:07:36.706Z,13.20
2019-02-06T09:10:07.724Z,11.27
2019-02-06T09:12:36.129Z,8.77
2019-02-06T09:15:05.914Z,12.13
2019-02-06T09:17:33.680Z,10.67
2019-02-06T09:20:01.255Z,11.23
2019-02-06T09:22:28.819Z,12.00
2019-02-06T09:24:57.077Z,14.57
2019-02-06T09:27:25.269Z,62.80
2019-02-06T09:29:53.241Z,58.73
2019-02-06T09:32:21.634Z,31.83
2019-02-06T09:34:49.903Z,21.40
2019-02-06T09:37:17.634Z,18.40
2019-02-06T09:39:46.034Z,13.40
2019-02-06T09:42:14.072Z,12.83
2019-02-06T09:44:41.715Z,11.93
2019-02-06T09:47:09.561Z,14.30
2019-02-06T09:49:41.561Z,13.47
2019-02-06T09:52:08.534Z,12.30
2019-02-06T09:54:36.143Z,10.57
2019-02-06T09:57:04.414Z,10.40
2019-02-06T09:59:33.392Z,9.23
2019-02-06T10:02:01.755Z,12.57
2019-02-06T10:04:29.444Z,11.57
2019-02-06T10:06:59.667Z,11.93
2019-02-06T10:09:28.018Z,12.83
2019-02-06T10:11:55.943Z,47.97
2019-02-06T10:14:23.576Z,61.27
2019-02-06T10:16:51.827Z,40.70
2019-02-06T10:19:19.917Z,32.43
2019-02-06T10:21:52.841Z,20.57
2019-02-06T10:24:19.008Z,13.93
2019-02-06T10:26:46.982Z,15.33
2019-02-06T10:29:14.934Z,14.83
2019-02-06T10:31:43.164Z,12.17
2019-02-06T10:34:10.868Z,13.20
2019-02-06T10:36:38.222Z,11.20
2019-02-06T10:39:07.746Z,13.30
2019-02-06T10:41:35.711Z,12.23
2019-02-06T10:44:04.002Z,13.97
2019-02-06T10:46:31.852Z,13.07
2019-02-06T10:48:59.922Z,10.07
2019-02-06T10:51:36.595Z,10.07
2019-02-06T10:54:04.649Z,11.57
2019-02-06T10:56:32.879Z,9.50
2019-02-06T10:59:01.327Z,9.77
2019-02-06T11:01:29.812Z,12.53
2019-02-06T11:03:57.483Z,34.07
2019-02-06T11:06:25.307Z,32.77
2019-02-06T11:08:53.403Z,21.30
2019-02-06T11:11:21.350Z,17.07
2019-02-06T11:13:50.285Z,14.17
2019-02-06T11:16:17.926Z,16.03
2019-02-06T11:18:46.339Z,13.63
2019-02-06T11:21:14.473Z,9.90
2019-02-06T11:23:42.546Z,11.77
2019-02-06T11:26:11.062Z,11.43
2019-02-06T11:28:39.120Z,10.63
2019-02-06T11:31:07.064Z,11.60
2019-02-06T11:33:34.853Z,11.17
2019-02-06T11:36:03.551Z,13.87
2019-02-06T11:38:32.224Z,10.70
2019-02-06T11:41:00.049Z,12.03
2019-02-06T11:43:27.806Z,10.17
2019-02-06T11:45:56.114Z,10.60
2019-02-06T11:48:24.233Z,11.33
2019-02-06T11:50:52.335Z,10.77
2019-02-06T11:53:26.266Z,11.53
2019-02-06T11:55:53.377Z,11.67
2019-02-06T11:58:21.404Z,9.50
2019-02-06T12:01:11.573Z,11.23
2019-02-06T12:03:40.194Z,55.23
2019-02-06T12:06:08.904Z,45.37
2019-02-06T12:08:36.835Z,28.83
2019-02-06T12:11:05.325Z,20.07
2019-02-06T12:13:33.069Z,20.03
2019-02-06T12:16:00.524Z,12.73
2019-02-06T12:18:28.570Z,15.50
2019-02-06T12:20:56.855Z,11.23
2019-02-06T12:23:31.794Z,9.97
2019-02-06T12:25:54.034Z,12.20
2019-02-06T12:28:21.860Z,11.47
2019-02-06T12:30:50.037Z,10.90
2019-02-06T12:33:18.655Z,12.30
2019-02-06T12:35:47.355Z,11.33
2019-02-06T12:38:15.403Z,11.27
2019-02-06T12:40:44.193Z,11.57
2019-02-06T12:43:12.058Z,9.03
2019-02-06T12:45:40.274Z,14.50
2019-02-06T12:48:08.230Z,9.03
2019-02-06T12:50:35.770Z,9.70
2019-02-06T12:53:03.486Z,8.50
2019-02-06T12:55:35.227Z,10.93
2019-02-06T12:58:04.479Z,9.20
2019-02-06T13:00:33.579Z,9.87
2019-02-06T13:03:01.502Z,13.37
2019-02-06T13:05:29.987Z,17.50
2019-02-06T13:07:57.953Z,17.50
2019-02-06T13:10:33.502Z,16.63
2019-02-06T13:12:54.825Z,15.43
2019-02-06T13:15:22.473Z,26.17
2019-02-06T13:17:50.878Z,13.27
2019-02-06T13:20:21.139Z,15.90
2019-02-06T13:22:48.965Z,18.17
2019-02-06T13:25:16.943Z,19.07
2019-02-06T13:27:44.730Z,15.33
2019-02-06T13:30:18.738Z,14.80
2019-02-06T13:32:47.303Z,15.07
2019-02-06T13:35:15.289Z,13.33
2019-02-06T13:37:44.480Z,12.90
2019-02-06T13:40:14.455Z,14.80
2019-02-06T13:42:42.117Z,10.00
2019-02-06T13:45:12.638Z,9.00
2019-02-06T13:47:40.297Z,9.93
2019-02-06T13:50:08.699Z,8.00
2019-02-06T13:52:38.014Z,10.20
2019-02-06T13:55:07.895Z,8.23
2019-02-06T13:57:36.048Z,8.50
2019-02-06T14:00:13.288Z,8.23
2019-02-06T14:02:41.661Z,7.27
2019-02-06T14:05:10.661Z,7.43
2019-02-06T14:07:38.744Z,8.10
2019-02-06T14:10:11.282Z,8.70
2019-02-06T14:12:39.521Z,28.67
2019-02-06T14:15:09.608Z,24.63
2019-02-06T14:17:37.668Z,20.60
2019-02-06T14:20:10.540Z,17.90
2019-02-06T14:22:38.004Z,17.40
2019-02-06T14:25:29.856Z,11.53
2019-02-06T14:28:45.024Z,12.90
2019-02-06T14:31:39.806Z,10.10
2019-02-06T14:34:20.190Z,8.40
2019-02-06T14:37:56.976Z,8.60
2019-02-06T14:41:08.311Z,6.03
2019-02-06T14:44:04.176Z,7.50
2019-02-06T14:47:09.777Z,6.67
2019-02-06T14:50:40.956Z,8.10
2019-02-06T14:53:59.141Z,4.90
2019-02-06T14:56:59.583Z,5.10
2019-02-06T14:59:51.559Z,5.53
2019-02-06T15:03:10.145Z,4.30
2019-02-06T15:06:26.834Z,5.20
2019-02-06T15:09:17.211Z,4.73
2019-02-06T15:12:08.134Z,4.23
2019-02-06T15:15:15.155Z,4.23
2019-02-06T15:18:13.697Z,4.30
2019-02-06T15:20:56.225Z,4.37
2019-02-06T15:24:20.970Z,4.67
2019-02-06T15:27:27.449Z,3.77
2019-02-06T15:30:39.207Z,5.57
2019-02-06T15:33:32.779Z,6.63
2019-02-06T15:36:28.929Z,5.90
2019-02-06T15:39:44.703Z,3.83
2019-02-06T15:42:30.781Z,4.57
2019-02-06T15:45:28.153Z,5.80
2019-02-06T15:48:23.041Z,38.33
2019-02-06T15:51:42.116Z,39.27
2019-02-06T15:54:48.408Z,30.93
2019-02-06T15:57:54.937Z,20.87
2019-02-06T16:00:59.370Z,15.67
2019-02-06T16:04:04.462Z,11.53
2019-02-06T16:06:59.753Z,13.30
2019-02-06T16:10:17.961Z,8.70
2019-02-06T16:13:22.316Z,8.47
2019-02-06T16:16:07.364Z,7.07
2019-02-06T16:18:58.063Z,8.50
2019-02-06T16:21:53.403Z,8.30
2019-02-06T16:25:00.999Z,6.73
2019-02-06T16:27:58.636Z,5.83
2019-02-06T16:31:05.038Z,5.97
2019-02-06T16:34:13.827Z,6.03
2019-02-06T16:37:13.237Z,6.37
2019-02-06T16:40:22.713Z,7.23
2019-02-06T16:43:19.352Z,6.60
2019-02-06T16:46:35.955Z,6.83
2019-02-06T16:49:43.601Z,45.60
2019-02-06T16:52:34.396Z,39.10
2019-02-06T16:55:46.022Z,33.77
2019-02-06T16:58:58.753Z,21.33
2019-02-06T17:01:55.619Z,19.40
2019-02-06T17:05:30.921Z,13.77
2019-02-06T17:08:31.220Z,13.60
2019-02-06T17:11:36.419Z,10.83
2019-02-06T17:14:48.203Z,8.60
2019-02-06T17:17:42.076Z,8.33
2019-02-06T17:20:46.603Z,9.87
2019-02-06T17:24:01.084Z,8.03
2019-02-06T17:27:14.299Z,6.60
2019-02-06T17:30:32.914Z,8.27
2019-02-06T17:33:28.230Z,5.47
2019-02-06T17:36:06.723Z,5.87
2019-02-06T17:39:31.436Z,6.10
2019-02-06T17:42:28.690Z,5.73
2019-02-06T17:45:28.941Z,7.90
2019-02-06T17:48:29.255Z,6.17
2019-02-06T17:51:31.469Z,5.57
2019-02-06T17:54:14.606Z,5.67
2019-02-06T17:56:42.349Z,6.50
2019-02-06T17:59:10.390Z,29.10
2019-02-06T18:01:44.610Z,47.17
2019-02-06T18:04:24.457Z,34.10
2019-02-06T18:06:53.584Z,23.97
2019-02-06T18:09:21.955Z,17.77
2019-02-06T18:11:50.673Z,13.30
2019-02-06T18:14:19.433Z,9.60
2019-02-06T18:16:47.146Z,8.10
2019-02-06T18:19:14.838Z,7.70
2019-02-06T18:21:43.412Z,6.63
2019-02-06T18:24:12.374Z,7.90
2019-02-06T18:26:42.892Z,7.47
2019-02-06T18:29:11.028Z,5.90
2019-02-06T18:31:42.150Z,9.57
2019-02-06T18:34:10.083Z,5.17
2019-02-06T18:36:37.931Z,7.50
2019-02-06T18:39:10.436Z,7.37
2019-02-06T18:41:38.166Z,8.17
2019-02-06T18:44:05.737Z,6.43
2019-02-06T18:46:33.647Z,8.20
2019-02-06T18:49:01.315Z,5.77
2019-02-06T18:51:29.141Z,8.33
2019-02-06T18:53:57.347Z,7.10
2019-02-06T18:56:29.137Z,5.13
2019-02-06T18:58:56.758Z,16.20
2019-02-06T19:01:24.976Z,36.87
2019-02-06T19:03:53.805Z,24.80
2019-02-06T19:06:21.312Z,15.00
2019-02-06T19:08:50.391Z,12.40
2019-02-06T19:11:18.594Z,10.77
2019-02-06T19:13:47.691Z,10.13
2019-02-06T19:16:15.547Z,10.17
2019-02-06T19:18:43.095Z,11.17
2019-02-06T19:21:11.001Z,9.57
2019-02-06T19:23:39.555Z,8.00
2019-02-06T19:26:07.317Z,8.13
2019-02-06T19:28:34.985Z,9.30
2019-02-06T19:31:02.749Z,7.90
2019-02-06T19:33:31.122Z,12.23
2019-02-06T19:36:00.099Z,11.10
2019-02-06T19:38:28.244Z,9.77
2019-02-06T19:40:56.604Z,9.97
2019-02-06T19:43:24.541Z,9.33
2019-02-06T19:45:52.241Z,10.63
2019-02-06T19:48:22.427Z,6.13
2019-02-06T19:50:50.678Z,5.80
2019-02-06T19:53:18.375Z,5.30
2019-02-06T19:55:45.981Z,5.80
2019-02-06T19:58:13.806Z,6.67
2019-02-06T20:00:41.387Z,7.93
2019-02-06T20:03:09.106Z,6.63
2019-02-06T20:05:37.672Z,7.77
2019-02-06T20:08:06.034Z,8.73
2019-02-06T20:10:35.938Z,8.33
2019-02-06T20:13:12.246Z,8.80
2019-02-06T20:15:33.396Z,6.03
2019-02-06T20:18:01.205Z,9.00
2019-02-06T20:20:29.473Z,10.63
2019-02-06T20:22:57.062Z,7.73
2019-02-06T20:25:24.510Z,9.00
2019-02-06T20:27:52.733Z,7.30
2019-02-06T20:30:23.033Z,9.70
2019-02-06T20:32:51.221Z,8.50
2019-02-06T20:35:18.823Z,9.00
2019-02-06T20:37:47.209Z,10.63
2019-02-06T20:40:23.208Z,9.43
2019-02-06T20:42:50.966Z,8.17
2019-02-06T20:45:18.611Z,10.33
2019-02-06T20:47:46.885Z,9.10
2019-02-06T20:50:20.142Z,8.80
2019-02-06T20:52:47.501Z,12.67
2019-02-06T20:55:15.905Z,10.80
2019-02-06T20:57:44.390Z,6.77
2019-02-06T21:00:15.522Z,7.77
2019-02-06T21:02:44.324Z,12.07
2019-02-06T21:05:12.624Z,29.30
2019-02-06T21:07:40.186Z,47.97
2019-02-06T21:10:12.351Z,30.13
2019-02-06T21:12:40.308Z,20.67
2019-02-06T21:15:08.224Z,16.33
2019-02-06T21:17:36.058Z,11.33
2019-02-06T21:20:05.592Z,10.40
2019-02-06T21:22:33.586Z,9.50
2019-02-06T21:25:01.620Z,8.50
2019-02-06T21:27:29.115Z,9.13
2019-02-06T21:29:57.057Z,9.10
2019-02-06T21:32:24.421Z,6.70
2019-02-06T21:34:52.476Z,9.77
2019-02-06T21:37:20.522Z,9.63
2019-02-06T21:39:47.993Z,10.00
2019-02-06T21:42:15.617Z,8.10
2019-02-06T21:44:44.093Z,8.40
2019-02-06T21:47:12.259Z,11.23
2019-02-06T21:49:40.112Z,9.13
2019-02-06T21:52:07.991Z,9.00
2019-02-06T21:54:35.851Z,7.87
2019-02-06T21:57:03.689Z,7.93
2019-02-06T21:59:31.295Z,10.00
2019-02-06T22:01:59.038Z,7.40
2019-02-06T22:04:26.755Z,9.40
2019-02-06T22:06:54.514Z,9.23
2019-02-06T22:09:22.238Z,9.10
2019-02-06T22:11:50.210Z,8.63
2019-02-06T22:14:18.205Z,6.60
2019-02-06T22:16:46.035Z,11.60
2019-02-06T22:19:13.456Z,9.37
2019-02-06T22:21:41.060Z,10.30
2019-02-06T22:24:08.735Z,11.07
2019-02-06T22:26:36.662Z,10.17
2019-02-06T22:29:04.259Z,10.47
2019-02-06T22:31:32.054Z,8.93
2019-02-06T22:33:59.782Z,9.17
2019-02-06T22:36:27.653Z,8.10
2019-02-06T22:38:55.379Z,12.17
2019-02-06T22:41:23.065Z,9.03
2019-02-06T22:43:50.569Z,10.23
2019-02-06T22:46:18.302Z,14.33
2019-02-06T22:48:45.858Z,11.67
2019-02-06T22:51:16.384Z,13.73
2019-02-06T22:53:43.709Z,15.10
2019-02-06T22:56:11.898Z,14.23
2019-02-06T22:58:39.320Z,10.47
2019-02-06T23:01:46.090Z,13.50
2019-02-06T23:04:14.529Z,12.30
2019-02-06T23:06:42.396Z,13.10
2019-02-06T23:09:10.099Z,19.50
2019-02-06T23:11:38.137Z,12.67
2019-02-06T23:14:16.904Z,16.70
2019-02-06T23:16:35.770Z,12.23
2019-02-06T23:19:04.192Z,13.10
2019-02-06T23:21:31.584Z,14.27
2019-02-06T23:23:59.148Z,15.70
2019-02-06T23:26:26.632Z,12.30
2019-02-06T23:28:54.434Z,16.10
2019-02-06T23:31:22.140Z,15.97
2019-02-06T23:33:50.354Z,11.60
2019-02-06T23:36:18.282Z,14.70
2019-02-06T23:38:45.985Z,13.13
2019-02-06T23:41:13.627Z,13.30
2019-02-06T23:43:41.127Z,13.17
2019-02-06T23:46:08.772Z,14.00
2019-02-06T23:48:36.205Z,13.57
2019-02-06T23:51:04.043Z,12.47
2019-02-06T23:53:31.664Z,17.30
2019-02-06T23:55:59.725Z,17.90
2019-02-06T23:58:27.413Z,14.97
